Time;durP1;ratioP1;P1;durP2;ratioP2;P2;SDS_P1;SDS_P2;PMS_P1;PMS_P2;Temp;Humidity;BMP_temperature;BMP_pressure;BME280_temperature;BME280_humidity;BME280_pressure;Samples;Min_cycle;Max_cycle;Signal;HPM_P1;HPM_P2
2022/12/24 00:01:45;;;;;;;5.68;1.80;;;9.40;98.00;;;;;;5079795;28;20032;-69
2022/12/24 00:04:11;;;;;;;7.82;2.00;;;9.20;98.00;;;;;;5076553;28;20028;-69
2022/12/24 00:06:36;;;;;;;4.63;1.40;;;9.20;98.00;;;;;;5074671;28;20472;-68
2022/12/24 00:09:03;;;;;;;7.97;2.00;;;9.10;98.00;;;;;;5058452;28;20056;-66
2022/12/24 00:11:28;;;;;;;6.65;2.10;;;9.00;98.00;;;;;;5074044;28;20036;-68
2022/12/24 00:13:54;;;;;;;6.32;1.50;;;9.10;98.00;;;;;;5085979;28;20424;-69
2022/12/24 00:16:22;;;;;;;7.43;2.47;;;9.00;98.00;;;;;;5072591;28;20035;-68
2022/12/24 00:18:48;;;;;;;6.53;1.65;;;8.90;98.00;;;;;;5053987;28;20056;-70
2022/12/24 00:21:14;;;;;;;11.13;1.70;;;8.80;98.00;;;;;;5059667;28;20053;-68
2022/12/24 00:23:40;;;;;;;8.32;2.35;;;8.80;98.00;;;;;;5084853;28;20067;-69
2022/12/24 00:26:06;;;;;;;7.68;1.70;;;8.90;98.00;;;;;;5076555;28;20425;-71
2022/12/24 00:28:31;;;;;;;7.13;1.98;;;9.00;98.00;;;;;;5088195;28;20126;-70
2022/12/24 00:30:57;;;;;;;6.63;1.98;;;8.90;98.00;;;;;;5077186;28;20032;-70
2022/12/24 00:33:22;;;;;;;11.68;2.45;;;8.90;98.00;;;;;;5079413;28;20530;-70
2022/12/24 00:35:52;;;;;;;6.88;2.08;;;8.90;98.00;;;;;;5076044;28;20033;-69
2022/12/24 00:38:18;;;;;;;7.28;2.03;;;8.80;98.00;;;;;;5078557;28;20032;-70
2022/12/24 00:40:43;;;;;;;8.40;1.90;;;8.80;98.00;;;;;;5076333;28;20013;-69
2022/12/24 00:43:09;;;;;;;7.57;1.92;;;8.70;98.00;;;;;;5079176;28;20025;-70
2022/12/24 00:45:34;;;;;;;10.48;2.00;;;8.80;98.00;;;;;;5076129;28;20106;-69
2022/12/24 00:48:00;;;;;;;9.52;2.15;;;8.90;98.00;;;;;;5077573;28;20029;-69
2022/12/24 00:50:25;;;;;;;8.50;1.90;;;8.90;98.00;;;;;;5076176;28;20363;-68
2022/12/24 00:52:51;;;;;;;9.80;2.53;;;9.00;98.00;;;;;;5078566;28;20024;-69
2022/12/24 00:55:16;;;;;;;10.77;2.45;;;9.00;98.00;;;;;;5082043;28;20070;-69
2022/12/24 00:57:42;;;;;;;7.82;1.52;;;9.00;98.00;;;;;;5083483;28;20082;-69
2022/12/24 01:00:08;;;;;;;11.85;2.58;;;9.10;98.00;;;;;;5080672;28;20044;-69
2022/12/24 01:02:33;;;;;;;11.07;2.13;;;9.20;98.00;;;;;;5081359;28;20032;-69
2022/12/24 01:05:11;;;;;;;6.47;1.90;;;9.10;98.00;;;;;;5075853;28;20408;-69
2022/12/24 01:07:39;;;;;;;13.00;2.80;;;9.10;98.00;;;;;;5073925;28;20036;-69
2022/12/24 01:10:06;;;;;;;10.70;2.97;;;9.10;98.00;;;;;;5057035;28;20056;-69
2022/12/24 01:12:32;;;;;;;10.25;2.90;;;9.10;98.00;;;;;;5077693;28;20297;-70
2022/12/24 01:14:58;;;;;;;11.13;1.85;;;9.10;98.00;;;;;;5079905;28;20063;-69
2022/12/24 01:17:23;;;;;;;6.57;1.80;;;9.10;98.00;;;;;;5058116;28;20054;-69
2022/12/24 01:19:49;;;;;;;9.70;2.67;;;9.00;98.00;;;;;;5074418;28;20024;-70
2022/12/24 01:22:15;;;;;;;11.48;2.33;;;9.10;98.00;;;;;;5074352;28;20037;-69
2022/12/24 01:24:41;;;;;;;6.85;2.13;;;9.10;98.00;;;;;;5056161;28;21371;-69
2022/12/24 01:27:07;;;;;;;11.77;2.05;;;9.20;98.00;;;;;;5073450;28;20500;-69
2022/12/24 01:29:33;;;;;;;12.70;2.10;;;9.30;98.00;;;;;;5084957;28;20035;-69
2022/12/24 01:31:58;;;;;;;10.63;1.98;;;9.40;98.00;;;;;;5075190;28;20035;-69
2022/12/24 01:34:24;;;;;;;10.82;2.75;;;9.50;98.00;;;;;;5055976;28;20028;-69
2022/12/24 01:36:50;;;;;;;6.68;2.22;;;9.40;98.00;;;;;;5074835;28;20698;-70
2022/12/24 01:39:15;;;;;;;11.40;2.88;;;9.40;98.00;;;;;;5076552;28;20036;-69
2022/12/24 01:44:31;;;;;;;9.40;2.08;;;9.20;98.00;;;;;;5081565;28;20043;-69
2022/12/24 01:47:27;;;;;;;10.38;2.42;;;9.20;98.00;;;;;;5075992;28;20032;-69
2022/12/24 01:49:57;;;;;;;9.43;2.20;;;9.10;98.00;;;;;;5061224;28;20135;-69
2022/12/24 01:52:31;;;;;;;8.18;2.38;;;9.00;98.00;;;;;;5066625;28;20023;-69
2022/12/24 01:55:17;;;;;;;9.93;1.88;;;9.00;98.00;;;;;;5080270;28;20055;-69
2022/12/24 01:57:51;;;;;;;10.63;2.17;;;9.10;98.00;;;;;;5076393;28;20103;-69
2022/12/24 02:00:17;;;;;;;9.65;1.90;;;9.10;98.00;;;;;;5078761;28;20441;-69
2022/12/24 02:02:46;;;;;;;8.27;1.75;;;9.20;98.00;;;;;;5079164;28;20157;-70
2022/12/24 02:05:23;;;;;;;9.10;1.80;;;9.20;98.00;;;;;;5070398;28;20036;-69
2022/12/24 02:07:50;;;;;;;8.02;1.65;;;9.00;98.00;;;;;;5074996;28;20025;-69
2022/12/24 02:10:17;;;;;;;8.68;2.78;;;9.00;98.00;;;;;;5074543;28;20028;-69
2022/12/24 02:12:43;;;;;;;9.70;2.50;;;9.10;98.00;;;;;;5074163;28;20032;-69
2022/12/24 02:15:12;;;;;;;11.48;1.90;;;9.20;98.00;;;;;;5078766;28;20064;-69
2022/12/24 02:17:54;;;;;;;8.63;1.70;;;9.30;98.00;;;;;;5073617;28;20099;-69
2022/12/24 02:20:54;;;;;;;9.25;1.77;;;9.20;98.00;;;;;;5076568;28;20109;-69
2022/12/24 02:23:41;;;;;;;9.43;2.15;;;9.20;98.00;;;;;;5069031;28;20052;-69
2022/12/24 02:26:17;;;;;;;8.75;1.88;;;9.00;98.00;;;;;;5066690;28;20846;-69
2022/12/24 02:28:42;;;;;;;10.32;2.13;;;8.90;98.00;;;;;;5070816;28;20021;-69
2022/12/24 02:31:21;;;;;;;7.25;2.17;;;8.80;98.00;;;;;;5083470;28;20031;-70
2022/12/24 02:34:07;;;;;;;7.70;2.33;;;8.70;98.00;;;;;;5072735;28;20027;-69
2022/12/24 02:36:51;;;;;;;13.73;2.00;;;8.70;98.00;;;;;;5074678;28;20048;-69
2022/12/24 02:39:20;;;;;;;;;;;8.70;98.00;;;;;;5071460;28;20021;-70
2022/12/24 02:42:06;;;;;;;8.75;2.33;;;8.80;98.00;;;;;;5072228;28;19915;-69
2022/12/24 02:44:57;;;;;;;11.18;2.28;;;8.80;98.00;;;;;;5082395;28;20032;-69
2022/12/24 02:47:26;;;;;;;8.27;1.80;;;8.80;98.00;;;;;;5077735;28;20049;-69
2022/12/24 02:49:52;;;;;;;7.03;1.80;;;8.70;98.00;;;;;;5072154;28;20028;-69
2022/12/24 02:52:41;;;;;;;11.32;2.35;;;8.80;98.00;;;;;;5071392;28;20048;-69
2022/12/24 02:55:31;;;;;;;10.02;1.92;;;8.80;98.00;;;;;;5072915;28;20062;-69
2022/12/24 02:58:15;;;;;;;9.65;2.10;;;8.80;98.00;;;;;;5072778;28;20167;-69
2022/12/24 03:01:15;;;;;;;9.50;2.20;;;8.90;98.00;;;;;;5086455;28;20111;-69
2022/12/24 03:04:05;;;;;;;7.53;2.47;;;8.80;98.00;;;;;;5081668;28;20029;-69
2022/12/24 03:07:05;;;;;;;9.60;2.17;;;8.80;98.00;;;;;;5074675;28;20115;-69
2022/12/24 03:10:00;;;;;;;12.65;3.08;;;8.70;98.00;;;;;;5066372;28;20028;-69
2022/12/24 03:12:36;;;;;;;10.35;2.30;;;8.80;98.00;;;;;;5084284;28;20040;-69
2022/12/24 03:15:04;;;;;;;7.85;2.30;;;8.90;98.00;;;;;;5077540;28;20036;-69
2022/12/24 03:17:33;;;;;;;9.25;2.10;;;9.00;98.00;;;;;;5079990;28;20024;-69
2022/12/24 03:19:59;;;;;;;10.57;2.22;;;9.10;98.00;;;;;;5083535;28;20289;-70
2022/12/24 03:22:26;;;;;;;11.48;2.83;;;9.20;98.00;;;;;;5079522;28;20036;-71
2022/12/24 03:24:51;;;;;;;7.70;2.33;;;9.20;98.00;;;;;;5081851;28;20463;-70
2022/12/24 03:27:18;;;;;;;11.23;2.95;;;9.10;98.00;;;;;;5077089;28;20036;-70
2022/12/24 03:29:44;;;;;;;14.52;3.75;;;9.00;98.00;;;;;;5068986;28;20112;-70
2022/12/24 03:32:10;;;;;;;10.10;2.20;;;9.10;98.00;;;;;;5077648;28;20028;-69
2022/12/24 03:34:35;;;;;;;9.20;2.30;;;9.20;98.00;;;;;;5076722;28;20036;-69
2022/12/24 03:37:01;;;;;;;11.20;2.05;;;9.40;98.00;;;;;;5076607;28;20321;-69
2022/12/24 03:39:26;;;;;;;12.90;2.65;;;9.40;98.00;;;;;;5074827;28;20044;-69
2022/12/24 03:41:52;;;;;;;10.40;2.30;;;9.40;98.00;;;;;;5076226;28;20020;-70
2022/12/24 03:44:18;;;;;;;9.18;2.25;;;9.40;98.00;;;;;;5058796;28;20036;-69
2022/12/24 03:46:43;;;;;;;6.63;1.92;;;9.40;98.00;;;;;;5076983;28;20029;-69
2022/12/24 03:49:09;;;;;;;9.32;1.90;;;9.40;98.00;;;;;;5072718;28;20077;-70
2022/12/24 03:51:37;;;;;;;7.97;1.88;;;9.30;98.00;;;;;;5076499;28;20425;-70
2022/12/24 03:54:03;;;;;;;9.05;2.00;;;9.20;98.00;;;;;;5074822;28;20037;-69
2022/12/24 03:56:28;;;;;;;12.25;2.20;;;9.20;98.00;;;;;;5075829;28;20021;-69
2022/12/24 03:58:54;;;;;;;12.27;2.92;;;9.20;98.00;;;;;;5074400;28;20425;-70
2022/12/24 04:01:19;;;;;;;11.70;3.03;;;9.00;98.00;;;;;;5077586;28;20033;-69
2022/12/24 04:03:45;;;;;;;8.18;1.88;;;9.00;98.00;;;;;;5074247;28;20071;-69
2022/12/24 04:06:13;;;;;;;10.05;2.90;;;9.00;98.00;;;;;;5076955;28;20028;-69
2022/12/24 04:08:39;;;;;;;5.88;1.77;;;9.00;98.00;;;;;;5050030;28;20028;-69
2022/12/24 04:11:08;;;;;;;12.10;2.90;;;8.90;98.00;;;;;;5077665;28;20444;-69
2022/12/24 04:13:34;;;;;;;10.77;2.25;;;8.90;98.00;;;;;;5074567;28;20037;-70
2022/12/24 04:16:06;;;;;;;8.93;2.17;;;9.00;98.00;;;;;;5076704;28;20078;-69
2022/12/24 04:18:31;;;;;;;11.73;3.53;;;9.00;98.00;;;;;;5071865;28;20079;-70
2022/12/24 04:20:57;;;;;;;13.00;3.45;;;9.00;98.00;;;;;;5077302;28;20017;-69
2022/12/24 04:23:23;;;;;;;12.10;2.75;;;9.10;98.00;;;;;;5075772;28;20052;-69
2022/12/24 04:25:49;;;;;;;15.10;3.90;;;9.20;98.00;;;;;;5076551;28;20032;-69
2022/12/24 04:28:15;;;;;;;11.55;2.53;;;9.30;98.00;;;;;;5071849;28;20020;-69
2022/12/24 04:30:41;;;;;;;9.70;2.20;;;9.40;98.00;;;;;;5076477;28;20029;-69
2022/12/24 04:33:07;;;;;;;7.28;1.98;;;9.40;98.00;;;;;;5056098;28;20097;-71
2022/12/24 04:35:37;;;;;;;7.80;1.83;;;9.50;98.00;;;;;;5045357;28;20510;-69
2022/12/24 04:38:02;;;;;;;10.13;2.20;;;9.60;98.00;;;;;;5076759;28;20333;-69
2022/12/24 04:40:28;;;;;;;12.98;2.17;;;9.50;98.00;;;;;;5076072;28;20020;-70
2022/12/24 04:42:53;;;;;;;10.07;2.38;;;9.40;98.00;;;;;;5076995;28;20290;-69
2022/12/24 04:45:19;;;;;;;9.73;1.90;;;9.40;98.00;;;;;;5075032;28;20121;-69
2022/12/24 04:47:45;;;;;;;9.50;2.13;;;9.40;98.00;;;;;;5076751;28;20113;-69
2022/12/24 04:50:10;;;;;;;8.80;2.10;;;9.30;98.00;;;;;;5074721;28;20029;-69
2022/12/24 04:52:36;;;;;;;9.80;2.00;;;9.30;98.00;;;;;;5076755;28;20032;-69
2022/12/24 04:55:03;;;;;;;10.35;3.00;;;9.20;98.00;;;;;;5075287;28;20025;-69
2022/12/24 04:57:31;;;;;;;8.48;2.10;;;9.10;98.00;;;;;;5074533;28;20029;-69
2022/12/24 04:59:57;;;;;;;8.35;1.90;;;9.00;98.00;;;;;;5073116;28;20377;-69
2022/12/24 05:02:22;;;;;;;8.85;2.10;;;9.00;98.00;;;;;;5074575;28;20039;-69
2022/12/24 05:04:48;;;;;;;6.65;2.08;;;9.30;98.00;;;;;;5073776;28;20425;-70
2022/12/24 05:07:13;;;;;;;10.02;2.05;;;9.40;98.00;;;;;;5074075;28;20416;-69
2022/12/24 05:09:39;;;;;;;7.38;2.08;;;9.50;98.00;;;;;;5074769;28;20108;-69
2022/12/24 05:12:05;;;;;;;8.25;1.98;;;9.50;98.00;;;;;;5076393;28;20029;-69
2022/12/24 05:14:30;;;;;;;9.85;2.75;;;9.40;98.00;;;;;;5073707;28;20460;-69
2022/12/24 05:16:56;;;;;;;8.70;2.20;;;9.20;98.00;;;;;;5074631;28;20343;-70
2022/12/24 05:19:21;;;;;;;22.35;11.57;;;9.10;98.00;;;;;;5073155;28;20519;-70
2022/12/24 05:26:20;;;;;;;11.70;2.58;;;8.90;98.00;;;;;;5075150;28;20107;-70
2022/12/24 05:27:16;;;;;;;10.85;2.67;;;8.40;98.00;;;;;;5075368;28;20139;-71
2022/12/24 05:29:42;;;;;;;11.70;2.63;;;8.20;98.00;;;;;;5073927;28;20037;-71
2022/12/24 05:32:07;;;;;;;11.13;2.35;;;8.10;97.80;;;;;;5073511;28;20116;-70
2022/12/24 05:34:33;;;;;;;8.07;2.20;;;8.00;97.20;;;;;;5063246;28;20040;-71
2022/12/24 05:36:59;;;;;;;9.38;2.72;;;7.90;96.50;;;;;;5073840;28;20086;-70
2022/12/24 05:39:24;;;;;;;11.30;2.70;;;7.80;97.00;;;;;;5072982;28;20066;-70
2022/12/24 05:41:50;;;;;;;10.45;2.83;;;7.90;98.00;;;;;;5072826;28;20021;-69
2022/12/24 05:44:16;;;;;;;15.60;2.72;;;8.00;98.00;;;;;;5056453;28;20033;-70
2022/12/24 05:46:42;;;;;;;12.15;2.42;;;7.90;98.00;;;;;;5071953;28;20032;-70
2022/12/24 05:49:08;;;;;;;11.35;2.60;;;7.90;98.00;;;;;;5068375;28;20064;-69
2022/12/24 05:51:34;;;;;;;11.27;2.88;;;7.90;98.00;;;;;;5075767;28;20056;-70
2022/12/24 05:53:59;;;;;;;12.38;2.30;;;7.90;98.00;;;;;;5074758;28;20021;-70
2022/12/24 05:56:25;;;;;;;8.98;2.22;;;7.80;98.00;;;;;;5072927;28;20118;-70
2022/12/24 05:58:53;;;;;;;15.10;2.83;;;7.80;98.00;;;;;;5074576;28;20036;-70
2022/12/24 06:01:20;;;;;;;10.50;2.40;;;7.80;98.00;;;;;;5071979;28;20029;-69
2022/12/24 06:03:48;;;;;;;10.73;2.75;;;7.80;98.00;;;;;;5071009;28;20020;-70
2022/12/24 06:06:19;;;;;;;11.52;2.28;;;7.80;98.00;;;;;;5073638;28;20332;-69
2022/12/24 06:08:46;;;;;;;12.68;3.00;;;7.70;98.00;;;;;;5075527;28;20031;-69
2022/12/24 06:11:14;;;;;;;17.02;4.28;;;7.80;98.00;;;;;;5069967;28;20147;-69
2022/12/24 06:13:41;;;;;;;12.98;3.10;;;7.90;98.00;;;;;;5054016;28;20139;-69
2022/12/24 06:16:12;;;;;;;11.80;3.55;;;7.90;98.00;;;;;;5074301;28;20028;-71
2022/12/24 06:18:38;;;;;;;8.90;2.50;;;7.90;98.00;;;;;;5074008;28;20055;-70
2022/12/24 06:21:05;;;;;;;17.20;3.13;;;8.00;98.00;;;;;;5074379;28;20124;-70
2022/12/24 06:23:35;;;;;;;12.23;2.72;;;8.10;98.00;;;;;;5057581;28;20329;-70
2022/12/24 06:26:03;;;;;;;15.38;3.28;;;8.10;98.00;;;;;;5074207;28;20036;-69
2022/12/24 06:28:33;;;;;;;13.50;2.38;;;8.10;98.00;;;;;;5074368;28;20028;-71
2022/12/24 06:31:02;;;;;;;12.10;2.38;;;8.20;98.00;;;;;;5071714;28;20029;-70
2022/12/24 06:33:28;;;;;;;12.40;2.70;;;8.20;98.00;;;;;;5046644;28;20368;-69
2022/12/24 06:35:54;;;;;;;9.57;2.60;;;8.30;98.00;;;;;;5075561;28;20034;-69
2022/12/24 06:38:20;;;;;;;12.32;2.90;;;8.30;98.00;;;;;;5077314;28;20028;-70
2022/12/24 06:40:46;;;;;;;10.55;2.78;;;8.20;98.00;;;;;;5078686;28;20044;-69
2022/12/24 06:43:12;;;;;;;9.55;2.40;;;8.20;98.00;;;;;;5058871;28;20016;-70
2022/12/24 06:45:39;;;;;;;10.98;2.78;;;8.10;98.00;;;;;;5075281;28;20031;-70
2022/12/24 06:48:05;;;;;;;13.35;3.22;;;8.10;98.00;;;;;;5075935;28;20068;-70
2022/12/24 06:50:32;;;;;;;12.82;3.15;;;8.10;98.00;;;;;;5076800;28;20027;-70
2022/12/24 06:52:58;;;;;;;14.57;3.17;;;8.20;98.00;;;;;;5066552;28;20025;-70
2022/12/24 06:55:23;;;;;;;14.05;3.00;;;8.20;98.00;;;;;;5058000;28;20024;-69
2022/12/24 06:57:49;;;;;;;13.23;3.00;;;8.30;98.00;;;;;;5076756;28;20034;-69
2022/12/24 07:00:15;;;;;;;10.27;2.95;;;8.30;98.00;;;;;;5071875;28;20033;-69
2022/12/24 07:02:42;;;;;;;14.50;2.97;;;8.30;98.00;;;;;;5076575;28;20036;-70
2022/12/24 07:05:12;;;;;;;10.98;2.40;;;8.40;98.00;;;;;;5074061;28;20034;-70
2022/12/24 07:07:40;;;;;;;15.60;2.70;;;8.40;98.00;;;;;;5072844;28;20347;-71
2022/12/24 07:10:09;;;;;;;13.05;3.28;;;8.50;98.00;;;;;;5053053;28;20036;-70
2022/12/24 07:12:34;;;;;;;12.40;3.22;;;8.50;98.00;;;;;;5076459;28;20097;-70
2022/12/24 07:15:00;;;;;;;13.90;3.17;;;8.60;98.00;;;;;;5067910;28;20032;-69
2022/12/24 07:17:25;;;;;;;15.88;3.10;;;8.60;98.00;;;;;;5077897;28;20033;-68
2022/12/24 07:19:51;;;;;;;17.65;3.35;;;8.60;98.00;;;;;;5073877;28;20036;-69
2022/12/24 07:22:16;;;;;;;12.43;2.75;;;8.60;98.00;;;;;;5059934;28;20313;-69
2022/12/24 07:24:42;;;;;;;16.02;3.78;;;8.50;98.00;;;;;;5056054;28;20102;-69
2022/12/24 07:27:08;;;;;;;12.48;2.78;;;8.40;98.00;;;;;;5070765;28;20039;-69
2022/12/24 07:29:33;;;;;;;15.18;3.08;;;8.40;98.00;;;;;;5077617;28;20033;-69
2022/12/24 07:31:59;;;;;;;11.60;3.33;;;8.40;98.00;;;;;;5077331;28;20046;-69
2022/12/24 07:34:25;;;;;;;15.02;3.08;;;8.40;98.00;;;;;;5069836;28;20051;-69
2022/12/24 07:36:50;;;;;;;15.18;2.92;;;8.50;98.00;;;;;;5073970;28;20558;-70
2022/12/24 07:39:16;;;;;;;12.02;4.05;;;8.50;98.00;;;;;;5071891;28;20453;-69
2022/12/24 07:41:42;;;;;;;11.77;3.53;;;8.50;98.00;;;;;;5078188;28;20029;-69
2022/12/24 07:44:12;;;;;;;10.13;3.00;;;8.50;98.00;;;;;;5077534;28;20028;-69
2022/12/24 07:46:38;;;;;;;10.18;3.05;;;8.40;98.00;;;;;;5077737;28;20409;-69
2022/12/24 07:49:03;;;;;;;12.90;3.53;;;8.30;98.00;;;;;;5074881;28;20060;-69
2022/12/24 07:51:32;;;;;;;16.70;3.42;;;8.20;98.00;;;;;;5077171;28;20400;-71
2022/12/24 07:53:58;;;;;;;13.98;4.15;;;8.20;98.00;;;;;;5078123;28;20409;-69
2022/12/24 07:56:23;;;;;;;11.98;4.45;;;8.20;98.00;;;;;;5074759;28;20040;-70
2022/12/24 07:58:50;;;;;;;14.93;4.78;;;8.30;98.00;;;;;;5075804;28;20127;-69
2022/12/24 08:01:16;;;;;;;13.98;4.70;;;8.30;98.00;;;;;;5060409;28;20036;-69
2022/12/24 08:03:42;;;;;;;14.82;3.45;;;8.40;98.00;;;;;;5076690;28;20032;-69
2022/12/24 08:06:08;;;;;;;13.80;3.13;;;8.40;98.00;;;;;;5075285;28;20418;-69
2022/12/24 08:08:34;;;;;;;14.93;4.38;;;8.50;98.00;;;;;;5077026;28;20090;-69
2022/12/24 08:11:04;;;;;;;18.30;4.32;;;8.50;98.00;;;;;;5077517;28;20320;-69
2022/12/24 08:13:30;;;;;;;11.73;3.22;;;8.50;98.00;;;;;;5058923;28;20020;-69
2022/12/24 08:15:56;;;;;;;12.77;3.17;;;8.50;98.00;;;;;;5077559;28;20162;-69
2022/12/24 08:18:21;;;;;;;19.20;3.05;;;8.60;98.00;;;;;;5075333;28;20127;-69
2022/12/24 08:20:47;;;;;;;17.15;3.97;;;8.80;97.80;;;;;;5077010;28;20413;-69
2022/12/24 08:23:13;;;;;;;15.00;3.08;;;9.00;97.50;;;;;;5076404;28;20024;-69
2022/12/24 08:25:42;;;;;;;15.57;3.22;;;9.10;97.10;;;;;;5075687;28;20039;-69
2022/12/24 08:28:08;;;;;;;9.57;2.80;;;9.20;97.20;;;;;;5076597;28;20037;-70
2022/12/24 08:30:34;;;;;;;12.00;3.42;;;9.20;96.90;;;;;;5076259;28;20029;-70
2022/12/24 08:33:00;;;;;;;13.10;3.22;;;9.20;96.80;;;;;;5075485;28;20433;-69
2022/12/24 08:35:26;;;;;;;13.77;3.90;;;9.20;96.80;;;;;;5058263;28;20037;-70
2022/12/24 08:37:51;;;;;;;20.52;4.60;;;9.30;96.90;;;;;;5076058;28;20020;-70
2022/12/24 08:40:17;;;;;;;14.55;3.58;;;9.40;97.00;;;;;;5076064;28;20036;-70
2022/12/24 08:42:42;;;;;;;16.63;3.85;;;9.40;96.90;;;;;;5076162;28;20028;-69
2022/12/24 08:45:10;;;;;;;12.23;2.70;;;9.40;96.90;;;;;;5071298;28;20028;-69
2022/12/24 08:47:36;;;;;;;18.77;2.72;;;9.50;96.70;;;;;;5057084;28;20429;-70
2022/12/24 08:50:02;;;;;;;10.05;2.33;;;9.50;96.40;;;;;;5056024;28;20025;-69
2022/12/24 08:52:30;;;;;;;16.92;3.42;;;9.60;96.30;;;;;;5056866;28;20021;-70
2022/12/24 08:54:56;;;;;;;13.88;2.90;;;9.70;95.70;;;;;;5059377;28;20032;-70
2022/12/24 08:57:21;;;;;;;15.02;3.30;;;9.70;95.40;;;;;;5076140;28;20024;-69
2022/12/24 08:59:47;;;;;;;14.00;2.67;;;9.90;95.10;;;;;;5075935;28;20059;-69
2022/12/24 09:02:12;;;;;;;13.48;3.35;;;10.10;94.70;;;;;;5076910;28;20105;-69
2022/12/24 09:04:39;;;;;;;8.90;2.40;;;10.30;93.50;;;;;;5075597;28;20043;-69
2022/12/24 09:07:11;;;;;;;8.98;2.67;;;10.90;92.30;;;;;;5076555;28;20024;-69
2022/12/24 09:09:36;;;;;;;10.00;2.60;;;11.60;90.10;;;;;;5076815;28;20025;-71
2022/12/24 09:12:06;;;;;;;14.52;2.78;;;12.20;88.40;;;;;;5076744;28;20042;-71
2022/12/24 09:14:32;;;;;;;10.10;2.80;;;12.50;86.50;;;;;;5075881;28;20033;-71
2022/12/24 09:16:58;;;;;;;12.13;2.65;;;12.70;86.30;;;;;;5076720;28;20044;-71
2022/12/24 09:19:24;;;;;;;11.45;2.65;;;13.00;84.50;;;;;;5075414;28;20046;-70
2022/12/24 09:21:49;;;;;;;13.40;2.60;;;12.80;84.20;;;;;;5076361;28;20021;-70
2022/12/24 09:24:15;;;;;;;11.48;2.83;;;12.10;85.70;;;;;;5076364;28;20031;-70
2022/12/24 09:26:41;;;;;;;9.52;2.63;;;11.70;87.10;;;;;;5075042;28;20100;-69
2022/12/24 09:29:08;;;;;;;13.05;3.08;;;11.60;87.80;;;;;;5075647;28;20044;-69
2022/12/24 09:31:34;;;;;;;12.63;3.22;;;11.40;87.70;;;;;;5058586;28;20016;-69
2022/12/24 09:34:00;;;;;;;12.10;2.63;;;11.10;89.30;;;;;;5075322;28;20042;-70
2022/12/24 09:36:26;;;;;;;11.55;2.13;;;11.00;89.80;;;;;;5075982;28;20344;-71
2022/12/24 09:38:51;;;;;;;12.48;2.83;;;10.90;90.00;;;;;;5074399;28;20036;-69
2022/12/24 09:41:40;;;;;;;11.23;3.00;;;10.90;89.30;;;;;;5058492;28;20146;-70
2022/12/24 09:44:35;;;;;;;13.05;3.35;;;10.90;90.40;;;;;;5058347;28;20027;-69
2022/12/24 09:47:07;;;;;;;11.35;2.88;;;10.80;90.10;;;;;;5075294;28;20032;-69
2022/12/24 09:49:46;;;;;;;12.77;2.35;;;10.80;90.30;;;;;;5074999;28;20016;-69
2022/12/24 09:52:19;;;;;;;13.23;2.85;;;10.70;90.20;;;;;;5074988;28;20017;-70
2022/12/24 09:55:00;;;;;;;10.90;2.78;;;10.80;90.60;;;;;;5058252;28;20058;-70
2022/12/24 09:57:31;;;;;;;12.60;2.75;;;10.80;90.00;;;;;;5076257;28;20024;-70
2022/12/24 09:59:57;;;;;;;10.73;2.80;;;10.80;90.30;;;;;;5075835;28;20452;-70
2022/12/24 10:02:22;;;;;;;12.50;3.20;;;10.60;90.60;;;;;;5075973;28;20043;-70
2022/12/24 10:04:48;;;;;;;12.98;2.78;;;10.40;91.20;;;;;;5074736;28;20028;-70
2022/12/24 10:07:42;;;;;;;15.20;3.25;;;10.30;92.00;;;;;;5074418;28;20029;-70
2022/12/24 10:10:36;;;;;;;15.85;2.80;;;10.10;92.30;;;;;;5072994;28;20029;-70
2022/12/24 10:13:26;;;;;;;12.32;2.50;;;10.00;93.10;;;;;;5075730;28;20029;-70
2022/12/24 10:16:16;;;;;;;11.65;2.70;;;10.10;92.40;;;;;;5074584;28;20035;-69
2022/12/24 10:19:22;;;;;;;12.60;2.80;;;10.10;92.80;;;;;;5073561;28;20321;-69
2022/12/24 10:22:26;;;;;;;12.75;2.80;;;10.00;92.80;;;;;;4974897;28;20031;-68
2022/12/24 10:25:08;;;;;;;15.90;3.30;;;10.10;92.60;;;;;;5031824;28;20040;-69
2022/12/24 10:27:41;;;;;;;12.18;2.70;;;10.30;92.70;;;;;;5057282;28;20130;-69
2022/12/24 10:30:19;;;;;;;14.55;2.70;;;10.50;92.20;;;;;;5073771;28;20051;-69
2022/12/24 10:32:47;;;;;;;16.55;3.05;;;10.60;91.90;;;;;;5074679;28;20119;-69
2022/12/24 10:35:16;;;;;;;22.73;3.72;;;10.70;91.50;;;;;;5073407;28;20035;-69
2022/12/24 10:37:43;;;;;;;14.43;2.97;;;10.70;92.00;;;;;;5072361;28;20037;-70
2022/12/24 10:40:21;;;;;;;17.63;4.60;;;10.70;91.90;;;;;;5072946;28;20028;-69
2022/12/24 10:42:47;;;;;;;16.38;3.40;;;10.70;91.20;;;;;;5075674;28;20368;-69
2022/12/24 10:45:18;;;;;;;13.40;2.63;;;10.60;92.10;;;;;;5074886;28;20029;-70
2022/12/24 10:47:49;;;;;;;12.10;2.60;;;10.50;92.30;;;;;;5073190;28;20067;-69
2022/12/24 10:50:26;;;;;;;14.75;3.40;;;10.40;92.30;;;;;;5074213;28;20024;-69
2022/12/24 10:52:59;;;;;;;17.05;3.58;;;10.40;93.00;;;;;;5055626;28;20427;-69
2022/12/24 10:55:27;;;;;;;11.48;3.45;;;10.50;92.50;;;;;;5068123;28;20085;-69
2022/12/24 10:58:04;;;;;;;12.77;3.50;;;10.50;92.80;;;;;;5075234;28;20043;-69
2022/12/24 11:00:30;;;;;;;13.60;3.22;;;10.60;92.80;;;;;;5074454;28;20062;-69
2022/12/24 11:03:26;;;;;;;14.68;4.13;;;10.70;92.50;;;;;;5072341;28;20028;-69
2022/12/24 11:06:20;;;;;;;15.25;3.30;;;10.90;92.30;;;;;;5056646;28;20111;-69
2022/12/24 11:08:46;;;;;;;14.50;3.30;;;11.00;91.80;;;;;;5073062;28;20060;-69
2022/12/24 11:11:19;;;;;;;15.30;3.40;;;10.90;91.20;;;;;;5074182;28;20060;-69
2022/12/24 11:13:57;;;;;;;16.17;3.00;;;10.90;92.20;;;;;;5056122;28;20036;-69
2022/12/24 11:16:28;;;;;;;12.57;2.85;;;11.00;92.30;;;;;;5074757;28;20040;-69
2022/12/24 11:18:56;;;;;;;12.48;2.97;;;11.10;90.90;;;;;;5074001;28;20032;-69
2022/12/24 11:21:38;;;;;;;14.05;2.47;;;11.10;90.80;;;;;;5076297;28;20035;-69
2022/12/24 11:24:12;;;;;;;11.65;2.88;;;11.10;90.80;;;;;;5076615;28;20078;-69
2022/12/24 11:26:40;;;;;;;16.65;2.97;;;11.20;90.90;;;;;;5078177;28;20025;-69
2022/12/24 11:29:27;;;;;;;13.07;3.08;;;11.40;90.60;;;;;;5077744;28;20046;-70
2022/12/24 11:32:29;;;;;;;12.80;3.78;;;11.70;89.70;;;;;;5077549;28;20032;-69
2022/12/24 11:34:55;;;;;;;15.50;3.22;;;11.90;90.00;;;;;;5074770;28;20799;-69
2022/12/24 11:37:23;;;;;;;17.17;4.22;;;11.90;89.30;;;;;;5078272;28;20031;-69
2022/12/24 11:39:51;;;;;;;14.25;3.35;;;12.10;89.70;;;;;;5077486;28;20405;-69
2022/12/24 11:42:32;;;;;;;11.88;2.83;;;12.30;88.40;;;;;;5058551;28;20029;-69
2022/12/24 11:45:00;;;;;;;12.95;3.00;;;12.40;88.30;;;;;;5042057;28;20033;-69
2022/12/24 11:47:37;;;;;;;10.02;2.67;;;12.20;88.50;;;;;;5078369;28;20040;-69
2022/12/24 11:50:18;;;;;;;14.27;2.72;;;11.90;88.80;;;;;;5074397;28;20058;-69
2022/12/24 11:52:48;;;;;;;12.63;3.00;;;11.70;90.10;;;;;;5078403;28;20413;-68
2022/12/24 11:55:32;;;;;;;11.05;2.80;;;11.40;90.20;;;;;;5077132;28;20081;-69
2022/12/24 11:58:14;;;;;;;12.68;2.70;;;11.40;90.70;;;;;;5078021;28;20025;-68
2022/12/24 12:00:47;;;;;;;9.95;3.25;;;11.40;90.80;;;;;;5077064;28;20025;-68
2022/12/24 12:03:34;;;;;;;15.40;3.92;;;11.50;90.80;;;;;;5076961;28;20025;-68
2022/12/24 12:06:04;;;;;;;9.73;2.90;;;11.40;91.00;;;;;;5076451;28;20120;-70
2022/12/24 12:08:34;;;;;;;13.10;3.90;;;11.40;90.30;;;;;;5075570;28;20340;-71
2022/12/24 12:11:11;;;;;;;15.40;3.83;;;11.40;90.60;;;;;;5077881;28;20029;-70
2022/12/24 12:13:39;;;;;;;17.13;3.90;;;11.30;91.00;;;;;;5077128;28;20045;-69
2022/12/24 12:16:22;;;;;;;16.00;4.38;;;11.30;91.20;;;;;;5077688;28;20021;-70
2022/12/24 12:18:59;;;;;;;13.18;2.75;;;11.10;92.10;;;;;;5075524;28;20074;-70
2022/12/24 12:21:33;;;;;;;17.00;4.07;;;11.10;92.10;;;;;;5077222;28;20043;-70
2022/12/24 12:24:09;;;;;;;10.45;3.00;;;11.10;91.40;;;;;;5075936;28;20321;-71
2022/12/24 12:26:35;;;;;;;9.70;2.80;;;11.40;91.60;;;;;;5077469;28;20026;-70
2022/12/24 12:29:27;;;;;;;11.98;2.92;;;11.90;90.60;;;;;;5075676;28;20024;-70
2022/12/24 12:32:03;;;;;;;11.25;2.92;;;11.90;89.60;;;;;;5049175;28;20105;-70
2022/12/24 12:34:58;;;;;;;12.23;2.83;;;11.90;89.80;;;;;;5074424;28;20052;-70
2022/12/24 12:37:32;;;;;;;11.95;2.78;;;11.80;91.00;;;;;;5057410;28;20079;-70
2022/12/24 12:39:58;;;;;;;13.15;2.80;;;11.70;90.80;;;;;;5027060;28;20111;-71
2022/12/24 12:42:38;;;;;;;15.82;2.78;;;11.80;89.80;;;;;;5074977;28;20060;-70
2022/12/24 12:45:22;;;;;;;10.95;3.22;;;11.90;90.50;;;;;;5058055;28;20074;-70
2022/12/24 12:48:01;;;;;;;14.70;4.68;;;12.10;89.60;;;;;;5077396;28;20028;-70
2022/12/24 12:50:34;;;;;;;14.45;4.13;;;12.20;89.10;;;;;;5074253;28;20028;-70
2022/12/24 12:53:27;;;;;;;10.88;2.95;;;12.20;89.10;;;;;;5076090;28;20036;-70
2022/12/24 12:56:19;;;;;;;12.80;3.70;;;12.20;88.60;;;;;;5075893;28;20454;-70
2022/12/24 12:58:58;;;;;;;15.13;3.72;;;12.20;89.00;;;;;;5063878;28;20047;-70
2022/12/24 13:01:34;;;;;;;11.38;2.45;;;12.20;89.70;;;;;;5074773;28;20585;-70
2022/12/24 13:04:24;;;;;;;10.75;3.00;;;12.00;88.70;;;;;;5074784;28;20024;-69
2022/12/24 13:07:05;;;;;;;14.30;3.40;;;11.60;90.40;;;;;;5072746;28;20410;-70
2022/12/24 13:09:36;;;;;;;16.45;3.80;;;11.60;90.90;;;;;;5075764;28;20031;-70
2022/12/24 13:12:31;;;;;;;12.82;2.80;;;11.80;90.40;;;;;;5075872;28;20033;-69